createdAt,value
2019-01-06T00:03:25.518Z,101296.77
2019-01-06T00:07:51.462Z,101309.67
2019-01-06T00:12:20.721Z,101303.66
2019-01-06T00:16:46.547Z,101313.16
2019-01-06T00:21:18.569Z,101317.58
2019-01-06T00:25:47.228Z,101310.75
2019-01-06T00:30:13.053Z,101317.33
2019-01-06T00:34:37.183Z,101314.41
2019-01-06T00:39:01.488Z,101314.16
2019-01-06T00:43:34.724Z,101315.96
2019-01-06T00:48:15.843Z,101315.45
2019-01-06T00:52:59.976Z,101318.73
2019-01-06T00:57:25.555Z,101319.42
2019-01-06T01:01:56.181Z,101315.47
2019-01-06T01:06:33.908Z,101324.53
2019-01-06T01:11:13.337Z,101316.28
2019-01-06T01:15:42.061Z,101315.55
2019-01-06T01:20:08.278Z,101310.69
2019-01-06T01:24:34.170Z,101312.26
2019-01-06T01:29:00.313Z,101312.80
2019-01-06T01:33:28.078Z,101310.08
2019-01-06T01:38:02.837Z,101316.28
2019-01-06T01:42:30.780Z,101321.59
2019-01-06T01:46:54.269Z,101310.39
2019-01-06T01:51:24.734Z,101321.55
2019-01-06T01:55:50.236Z,101322.47
2019-01-06T02:00:19.343Z,101324.72
2019-01-06T02:04:46.923Z,101319.14
2019-01-06T02:09:10.727Z,101316.34
2019-01-06T02:13:38.680Z,101312.24
2019-01-06T02:17:57.757Z,101326.03
2019-01-06T02:22:22.483Z,101317.03
2019-01-06T02:26:43.686Z,101326.11
2019-01-06T02:31:13.149Z,101331.74
2019-01-06T02:35:39.042Z,101334.14
2019-01-06T02:40:03.638Z,101337.16
2019-01-06T02:44:28.652Z,101337.46
2019-01-06T02:48:54.034Z,101333.14
2019-01-06T02:53:32.033Z,101336.48
2019-01-06T02:58:16.468Z,101343.50
2019-01-06T03:02:48.469Z,101344.81
2019-01-06T03:07:16.889Z,101337.09
2019-01-06T03:11:39.421Z,101342.09
2019-01-06T03:15:58.260Z,101333.69
2019-01-06T03:20:36.687Z,101338.37
2019-01-06T03:25:02.090Z,101331.13
2019-01-06T03:29:27.958Z,101330.49
2019-01-06T03:33:53.734Z,101326.48
2019-01-06T03:38:25.644Z,101313.96
2019-01-06T03:42:51.632Z,101317.45
2019-01-06T03:47:21.017Z,101316.44
2019-01-06T03:51:56.080Z,101315.64
2019-01-06T03:56:29.548Z,101311.94
2019-01-06T04:00:53.877Z,101303.68
2019-01-06T04:05:17.441Z,101303.77
2019-01-06T04:09:45.927Z,101295.72
2019-01-06T04:14:11.812Z,101298.80
2019-01-06T04:18:49.922Z,101296.42
2019-01-06T04:23:31.090Z,101298.97
2019-01-06T04:27:59.715Z,101305.45
2019-01-06T04:32:35.430Z,101300.50
2019-01-06T04:36:54.823Z,101302.35
2019-01-06T04:41:29.657Z,101311.95
2019-01-06T04:46:05.531Z,101313.48
2019-01-06T04:50:33.263Z,101306.45
2019-01-06T04:54:57.950Z,101314.28
2019-01-06T04:59:33.170Z,101305.09
2019-01-06T05:04:12.770Z,101307.45
2019-01-06T05:08:47.901Z,101308.23
2019-01-06T05:13:25.566Z,101309.79
2019-01-06T05:17:50.064Z,101300.30
2019-01-06T05:22:14.462Z,101300.11
2019-01-06T05:26:56.097Z,101298.25
2019-01-06T05:31:20.321Z,101302.03
2019-01-06T05:35:51.895Z,101294.16
2019-01-06T05:40:11.818Z,101299.73
2019-01-06T05:44:52.705Z,101294.80
2019-01-06T05:49:34.158Z,101293.33
2019-01-06T05:54:14.059Z,101307.00
2019-01-06T05:58:38.870Z,101307.13
2019-01-06T06:03:04.703Z,101311.39
2019-01-06T06:07:30.592Z,101315.66
2019-01-06T06:12:05.712Z,101323.46
2019-01-06T06:16:30.445Z,101330.41
2019-01-06T06:20:55.331Z,101341.31
2019-01-06T06:25:24.060Z,101342.55
2019-01-06T06:29:54.357Z,101346.20
2019-01-06T06:34:38.343Z,101350.97
2019-01-06T06:39:04.168Z,101350.48
2019-01-06T06:43:28.617Z,101350.89
2019-01-06T06:48:09.556Z,101350.52
2019-01-06T06:52:35.466Z,101353.76
2019-01-06T06:57:08.924Z,101361.23
2019-01-06T07:02:33.493Z,101358.48
2019-01-06T07:06:57.982Z,101356.47
2019-01-06T07:11:32.891Z,101358.69
2019-01-06T07:16:04.621Z,101370.59
2019-01-06T07:20:30.331Z,101367.97
2019-01-06T07:24:55.109Z,101369.45
2019-01-06T07:29:29.982Z,101377.25
2019-01-06T07:34:00.435Z,101385.91
2019-01-06T07:38:35.299Z,101389.61
2019-01-06T07:43:10.297Z,101389.69
2019-01-06T07:47:35.171Z,101400.48
2019-01-06T07:52:16.202Z,101411.86
2019-01-06T07:56:38.202Z,101413.24
2019-01-06T08:01:16.413Z,101423.06
2019-01-06T08:05:56.055Z,101420.94
2019-01-06T08:10:19.322Z,101433.30
2019-01-06T08:14:44.128Z,101437.17
2019-01-06T08:19:05.591Z,101438.64
2019-01-06T08:23:43.697Z,101441.64
2019-01-06T08:27:52.740Z,101449.70
2019-01-06T08:32:21.638Z,101451.96
2019-01-06T08:36:50.143Z,101454.39
2019-01-06T08:41:15.174Z,101458.45
2019-01-06T08:45:40.092Z,101453.36
2019-01-06T08:50:00.824Z,101466.84
2019-01-06T08:54:25.298Z,101470.41
2019-01-06T08:58:56.434Z,101472.27
2019-01-06T09:03:35.133Z,101473.31
2019-01-06T09:07:58.969Z,101475.62
2019-01-06T09:12:30.863Z,101476.16
2019-01-06T09:16:56.728Z,101476.86
2019-01-06T09:21:34.542Z,101484.30
2019-01-06T09:26:15.895Z,101484.30
2019-01-06T09:30:44.570Z,101482.66
2019-01-06T09:35:31.605Z,101497.98
2019-01-06T09:39:56.128Z,101500.33
2019-01-06T09:44:34.445Z,101507.97
2019-01-06T09:49:00.259Z,101506.73
2019-01-06T09:53:33.182Z,101502.26
2019-01-06T09:58:01.781Z,101496.54
2019-01-06T10:02:35.352Z,101490.66
2019-01-06T10:07:01.434Z,101493.37
2019-01-06T10:11:19.889Z,101491.52
2019-01-06T10:15:45.497Z,101498.64
2019-01-06T10:20:12.992Z,101504.51
2019-01-06T10:24:58.242Z,101487.70
2019-01-06T10:29:24.114Z,101494.22
2019-01-06T10:33:58.843Z,101498.30
2019-01-06T10:38:24.649Z,101492.81
2019-01-06T10:42:49.359Z,101496.07
2019-01-06T10:47:24.384Z,101495.23
2019-01-06T10:51:49.139Z,101491.95
2019-01-06T10:56:13.668Z,101480.95
2019-01-06T11:00:48.386Z,101484.42
2019-01-06T11:05:18.394Z,101485.83
2019-01-06T11:09:57.123Z,101493.10
2019-01-06T11:14:25.438Z,101487.84
2019-01-06T11:18:53.039Z,101490.17
2019-01-06T11:23:24.828Z,101491.72
2019-01-06T11:27:49.294Z,101493.71
2019-01-06T11:32:30.661Z,101494.94
2019-01-06T11:37:05.595Z,101488.95
2019-01-06T11:41:45.111Z,101487.45
2019-01-06T11:46:10.974Z,101493.86
2019-01-06T11:50:43.087Z,101483.35
2019-01-06T11:55:11.843Z,101485.39
2019-01-06T11:59:49.774Z,101490.08
2019-01-06T12:04:09.299Z,101481.72
2019-01-06T12:08:41.078Z,101485.45
2019-01-06T12:13:09.661Z,101476.40
2019-01-06T12:17:42.013Z,101476.84
2019-01-06T12:22:23.135Z,101472.57
2019-01-06T12:26:54.875Z,101473.16
2019-01-06T12:31:34.226Z,101477.67
2019-01-06T12:35:58.872Z,101481.94
2019-01-06T12:40:31.542Z,101485.30
2019-01-06T12:45:06.880Z,101481.94
2019-01-06T12:49:37.293Z,101488.39
2019-01-06T12:54:01.686Z,101486.80
2019-01-06T12:58:30.624Z,101486.62
2019-01-06T13:02:53.941Z,101490.03
2019-01-06T13:07:26.116Z,101497.05
2019-01-06T13:11:50.943Z,101499.80
2019-01-06T13:16:22.082Z,101506.41
2019-01-06T13:20:48.023Z,101510.08
2019-01-06T13:25:23.438Z,101525.72
2019-01-06T13:30:04.825Z,101526.63
2019-01-06T13:34:30.815Z,101532.52
2019-01-06T13:38:59.569Z,101543.70
2019-01-06T13:43:24.171Z,101541.38
2019-01-06T13:47:50.211Z,101548.11
2019-01-06T13:52:14.812Z,101549.88
2019-01-06T13:56:40.997Z,101551.84
2019-01-06T14:01:15.761Z,101558.16
2019-01-06T14:05:55.334Z,101554.23
2019-01-06T14:10:21.352Z,101556.99
2019-01-06T14:14:52.100Z,101559.77
2019-01-06T14:19:33.124Z,101558.27
2019-01-06T14:24:04.214Z,101571.43
2019-01-06T14:28:33.042Z,101577.33
2019-01-06T14:32:57.555Z,101577.06
2019-01-06T14:37:23.488Z,101579.78
2019-01-06T14:41:46.255Z,101584.89
2019-01-06T14:46:10.830Z,101580.48
2019-01-06T14:50:34.885Z,101581.02
2019-01-06T14:55:01.013Z,101583.00
2019-01-06T14:59:35.777Z,101586.42
2019-01-06T15:04:04.818Z,101589.95
2019-01-06T15:08:34.420Z,101597.68
2019-01-06T15:13:15.341Z,101595.78
2019-01-06T15:17:41.287Z,101597.19
2019-01-06T15:22:05.814Z,101601.45
2019-01-06T15:26:30.725Z,101604.81
2019-01-06T15:30:55.253Z,101601.23
2019-01-06T15:35:19.929Z,101611.02
2019-01-06T15:39:44.403Z,101611.98
2019-01-06T15:44:16.259Z,101612.94
2019-01-06T15:48:53.510Z,101619.23
2019-01-06T15:53:28.365Z,101618.20
2019-01-06T15:57:56.986Z,101616.86
2019-01-06T16:02:37.849Z,101618.36
2019-01-06T16:07:16.246Z,101625.88
2019-01-06T16:11:41.105Z,101630.50
2019-01-06T16:16:11.169Z,101626.29
2019-01-06T16:20:38.147Z,101627.72
2019-01-06T16:25:06.285Z,101627.76
2019-01-06T16:29:35.463Z,101631.81
2019-01-06T16:34:16.592Z,101639.05
2019-01-06T16:38:41.260Z,101643.59
2019-01-06T16:43:05.449Z,101644.31
2019-01-06T16:47:50.225Z,101642.20
2019-01-06T16:52:14.668Z,101646.83
2019-01-06T16:56:39.039Z,101646.30
2019-01-06T17:01:02.339Z,101653.70
2019-01-06T17:05:34.235Z,101653.03
2019-01-06T17:10:03.137Z,101649.27
2019-01-06T17:14:41.400Z,101649.12
2019-01-06T17:19:05.758Z,101647.70
2019-01-06T17:23:30.976Z,101654.48
2019-01-06T17:28:07.838Z,101647.63
2019-01-06T17:32:41.238Z,101654.27
2019-01-06T17:37:09.861Z,101648.11
2019-01-06T17:41:44.767Z,101643.83
2019-01-06T17:46:21.361Z,101640.75
2019-01-06T17:50:50.810Z,101644.80
2019-01-06T17:55:15.407Z,101651.34
2019-01-06T17:59:41.271Z,101655.48
2019-01-06T18:04:13.529Z,101658.05
2019-01-06T18:08:48.808Z,101663.23
2019-01-06T18:13:20.385Z,101669.88
2019-01-06T18:17:46.372Z,101665.45
2019-01-06T18:22:11.181Z,101669.39
2019-01-06T18:26:38.242Z,101670.90
2019-01-06T18:31:11.316Z,101679.20
2019-01-06T18:35:40.005Z,101676.23
2019-01-06T18:40:08.638Z,101679.64
2019-01-06T18:44:35.546Z,101684.98
2019-01-06T18:48:59.906Z,101679.58
2019-01-06T18:53:43.082Z,101675.63
2019-01-06T18:58:07.984Z,101677.59
2019-01-06T19:02:28.638Z,101676.69
2019-01-06T19:06:55.018Z,101673.72
2019-01-06T19:11:18.845Z,101678.52
2019-01-06T19:15:44.936Z,101673.38
2019-01-06T19:20:26.236Z,101677.66
2019-01-06T19:25:07.201Z,101681.72
2019-01-06T19:29:31.693Z,101689.23
2019-01-06T19:33:56.131Z,101684.91
2019-01-06T19:38:22.909Z,101684.91
2019-01-06T19:43:00.898Z,101685.66
2019-01-06T19:47:42.118Z,101692.83
2019-01-06T19:52:12.905Z,101692.65
2019-01-06T19:56:29.164Z,101696.66
2019-01-06T20:00:53.943Z,101703.56
2019-01-06T20:05:19.012Z,101703.05
2019-01-06T20:09:44.947Z,101701.39
2019-01-06T20:14:23.185Z,101706.55
2019-01-06T20:18:51.897Z,101700.80
2019-01-06T20:23:19.070Z,101704.66
2019-01-06T20:27:43.439Z,101708.48
2019-01-06T20:32:20.234Z,101704.41
2019-01-06T20:36:44.936Z,101712.50
2019-01-06T20:41:09.406Z,101719.53
2019-01-06T20:45:34.020Z,101724.50
2019-01-06T20:50:06.403Z,101724.69
2019-01-06T20:54:32.725Z,101722.06
2019-01-06T20:58:57.582Z,101725.16
2019-01-06T21:03:29.347Z,101714.58
2019-01-06T21:07:53.653Z,101717.35
2019-01-06T21:12:11.673Z,101711.64
2019-01-06T21:16:36.370Z,101718.02
2019-01-06T21:21:01.234Z,101717.28
2019-01-06T21:25:25.630Z,101718.17
2019-01-06T21:30:00.852Z,101726.82
2019-01-06T21:34:26.590Z,101731.77
2019-01-06T21:38:52.312Z,101731.09
2019-01-06T21:43:20.933Z,101735.37
2019-01-06T21:47:45.525Z,101728.85
2019-01-06T21:52:05.419Z,101728.14
2019-01-06T21:56:48.705Z,101732.03
2019-01-06T22:01:16.010Z,101737.34
2019-01-06T22:05:43.539Z,101739.97
2019-01-06T22:10:09.599Z,101736.39
2019-01-06T22:14:50.375Z,101730.31
2019-01-06T22:19:28.470Z,101729.79
2019-01-06T22:23:52.954Z,101733.12
2019-01-06T22:28:17.522Z,101732.98
2019-01-06T22:32:46.502Z,101725.58
2019-01-06T22:37:10.929Z,101728.77
2019-01-06T22:41:35.499Z,101722.92
2019-01-06T22:46:13.660Z,101723.03
2019-01-06T22:50:30.591Z,101726.10
2019-01-06T22:55:00.093Z,101733.02
2019-01-06T22:59:32.095Z,101730.39
2019-01-06T23:03:58.072Z,101730.66
2019-01-06T23:08:27.262Z,101730.59
2019-01-06T23:12:42.572Z,101726.83
2019-01-06T23:17:18.016Z,101733.22
2019-01-06T23:21:42.403Z,101731.53
2019-01-06T23:26:09.105Z,101734.95
2019-01-06T23:30:33.809Z,101743.21
2019-01-06T23:35:21.335Z,101734.02
2019-01-06T23:40:04.769Z,101731.77
2019-01-06T23:44:42.634Z,101726.20
2019-01-06T23:49:17.404Z,101735.92
2019-01-06T23:53:43.514Z,101735.41
2019-01-06T23:58:08.600Z,101737.95
